Time;durP1;ratioP1;P1;durP2;ratioP2;P2;SDS_P1;SDS_P2;PMS_P1;PMS_P2;Temp;Humidity;BMP_temperature;BMP_pressure;BME280_temperature;BME280_humidity;BME280_pressure;Samples;Min_cycle;Max_cycle;Signal;HPM_P1;HPM_P2
2023/07/03 04:06:40;;;;;;;;;33.33;31.00;;;;;;;;6029158;39;10000251;-52
2023/07/03 06:22:14;;;;;;;;;35.00;30.75;;;;;;;;6491214;39;9117;-53
2023/07/03 06:28:18;;;;;;;;;29.50;28.50;;;;;;;;6489077;39;8883;-52
2023/07/03 06:34:21;;;;;;;;;31.25;28.75;;;;;;;;6490324;39;8879;-53
2023/07/03 06:40:30;;;;;;;;;32.00;30.25;;;;;;;;6488098;31;9014;-54
2023/07/03 06:46:35;;;;;;;;;33.25;32.00;;;;;;;;6491853;31;9597;-53
2023/07/03 06:52:41;;;;;;;;;23.75;23.00;;;;;;;;6489960;39;8961;-51
2023/07/03 06:58:47;;;;;;;;;21.25;18.00;;;;;;;;6489652;46;8906;-50
2023/07/03 07:04:53;;;;;;;;;21.00;17.50;;;;;;;;6491918;39;8852;-51
2023/07/03 07:10:56;;;;;;;;;24.25;23.50;;;;;;;;6490742;46;8921;-54
2023/07/03 07:17:03;;;;;;;;;23.25;20.75;;;;;;;;6489924;46;8961;-51
2023/07/03 07:23:09;;;;;;;;;27.50;26.50;;;;;;;;6490143;39;8921;-52
2023/07/03 07:29:14;;;;;;;;;24.25;23.50;;;;;;;;6488812;46;8917;-52
2023/07/03 07:35:16;;;;;;;;;20.25;20.00;;;;;;;;6491643;46;8849;-50
2023/07/03 07:41:20;;;;;;;;;25.75;25.00;;;;;;;;6491204;46;8941;-51
2023/07/03 07:47:23;;;;;;;;;24.50;24.00;;;;;;;;6489664;39;9081;-51
2023/07/03 07:53:29;;;;;;;;;21.75;21.50;;;;;;;;6489406;39;8989;-50
2023/07/03 07:59:34;;;;;;;;;23.00;22.00;;;;;;;;6489625;39;9630;-55
2023/07/03 08:05:41;;;;;;;;;18.25;17.75;;;;;;;;6487007;46;8905;-53
2023/07/03 08:11:44;;;;;;;;;26.50;25.00;;;;;;;;6489366;39;9537;-51
2023/07/03 08:17:48;;;;;;;;;22.00;21.75;;;;;;;;6491778;39;8992;-50
2023/07/03 08:23:52;;;;;;;;;23.00;22.00;;;;;;;;6490962;46;8908;-53
2023/07/03 08:29:56;;;;;;;;;23.00;21.25;;;;;;;;6489274;39;8938;-53
2023/07/03 08:36:00;;;;;;;;;23.75;23.75;;;;;;;;6491219;39;8890;-53
2023/07/03 08:42:26;;;;;;;;;21.25;19.25;;;;;;;;6488279;39;8888;-59
2023/07/03 08:48:57;;;;;;;;;25.50;22.25;;;;;;;;6487172;39;9034;-58
2023/07/03 08:55:03;;;;;;;;;14.50;14.50;;;;;;;;6487948;39;8895;-59
2023/07/03 09:01:13;;;;;;;;;23.50;23.50;;;;;;;;6490482;39;8984;-58
2023/07/03 09:07:37;;;;;;;;;21.00;21.00;;;;;;;;6490730;39;8964;-57
2023/07/03 09:13:50;;;;;;;;;30.75;29.25;;;;;;;;6490184;39;9705;-58
2023/07/03 09:19:56;;;;;;;;;24.25;23.75;;;;;;;;6488780;46;8842;-59
2023/07/03 09:26:42;;;;;;;;;22.25;22.00;;;;;;;;6486204;46;8879;-58
2023/07/03 09:32:45;;;;;;;;;22.25;20.50;;;;;;;;6487064;39;8965;-58
2023/07/03 09:38:49;;;;;;;;;25.25;23.00;;;;;;;;6488092;39;8860;-59
2023/07/03 09:44:51;;;;;;;;;23.00;22.25;;;;;;;;6488748;46;8943;-57
2023/07/03 09:50:56;;;;;;;;;23.00;22.75;;;;;;;;6489447;46;8979;-58
2023/07/03 09:57:26;;;;;;;;;20.00;20.00;;;;;;;;6489712;39;8857;-58
2023/07/03 10:03:31;;;;;;;;;52.00;44.67;;;;;;;;6488117;31;9563;-59
2023/07/03 10:09:41;;;;;;;;;41.50;35.75;;;;;;;;6488059;39;9002;-58
2023/07/03 10:15:51;;;;;;;;;20.50;20.50;;;;;;;;6489165;39;9026;-58
2023/07/03 10:21:54;;;;;;;;;21.25;19.50;;;;;;;;6486875;39;9580;-59
2023/07/03 10:28:06;;;;;;;;;23.75;21.75;;;;;;;;6488680;39;9010;-58
2023/07/03 10:34:16;;;;;;;;;23.75;23.00;;;;;;;;6490105;39;9045;-59
2023/07/03 10:40:41;;;;;;;;;23.75;21.75;;;;;;;;6491109;31;8889;-58
2023/07/03 10:46:53;;;;;;;;;25.00;25.00;;;;;;;;6489215;39;8925;-58
2023/07/03 10:53:07;;;;;;;;;2.00;2.00;;;;;;;;6491208;31;8913;-60
2023/07/03 10:59:33;;;;;;;;;22.25;21.00;;;;;;;;6489344;31;9160;-57
2023/07/03 11:05:46;;;;;;;;;27.50;24.50;;;;;;;;6491340;39;8970;-57
2023/07/03 11:12:03;;;;;;;;;24.25;23.25;;;;;;;;6488148;46;8953;-59
2023/07/03 11:18:31;;;;;;;;;33.75;32.25;;;;;;;;6488442;39;8920;-57
2023/07/03 11:25:09;;;;;;;;;30.25;29.50;;;;;;;;6489044;39;9050;-60
2023/07/03 11:31:14;;;;;;;;;42.25;35.00;;;;;;;;6490079;39;8970;-59
2023/07/03 11:37:43;;;;;;;;;38.25;34.00;;;;;;;;6489677;31;9008;-59
2023/07/03 11:44:16;;;;;;;;;33.25;31.25;;;;;;;;6485137;39;8976;-58
2023/07/03 11:50:30;;;;;;;;;21.75;21.00;;;;;;;;6486160;46;8975;-57
2023/07/03 11:56:32;;;;;;;;;28.25;27.25;;;;;;;;6486270;46;9027;-60
2023/07/03 12:02:53;;;;;;;;;23.75;23.00;;;;;;;;6487728;31;8944;-58
2023/07/03 12:09:20;;;;;;;;;22.50;19.00;;;;;;;;6487272;39;8955;-58
2023/07/03 12:15:22;;;;;;;;;24.00;21.50;;;;;;;;6489143;39;9023;-59
2023/07/03 12:21:38;;;;;;;;;17.75;17.75;;;;;;;;6487799;39;8921;-54
2023/07/03 12:27:40;;;;;;;;;20.75;19.25;;;;;;;;6486197;46;8877;-58
2023/07/03 12:33:51;;;;;;;;;21.75;21.00;;;;;;;;6485639;39;8911;-58
2023/07/03 12:39:55;;;;;;;;;22.25;21.25;;;;;;;;6485121;31;8936;-59
2023/07/03 12:45:59;;;;;;;;;22.25;20.00;;;;;;;;6486997;39;9030;-60
2023/07/03 12:52:06;;;;;;;;;24.75;24.75;;;;;;;;6485422;39;8976;-58
2023/07/03 12:58:12;;;;;;;;;23.75;23.75;;;;;;;;6486627;39;8912;-58
2023/07/03 13:04:33;;;;;;;;;21.75;21.25;;;;;;;;6486801;31;8889;-58
2023/07/03 13:10:57;;;;;;;;;24.00;23.00;;;;;;;;6484485;46;8904;-58
2023/07/03 13:17:03;;;;;;;;;23.00;22.75;;;;;;;;6486717;46;8956;-56
2023/07/03 13:23:09;;;;;;;;;24.00;24.00;;;;;;;;6484399;46;8923;-57
2023/07/03 13:29:12;;;;;;;;;44.25;37.25;;;;;;;;6486176;46;8886;-55
2023/07/03 13:35:26;;;;;;;;;25.50;25.50;;;;;;;;6486292;46;8903;-57
2023/07/03 13:41:30;;;;;;;;;26.00;23.75;;;;;;;;6485940;36;8895;-58
2023/07/03 13:47:32;;;;;;;;;20.50;19.75;;;;;;;;6486455;39;9167;-59
2023/07/03 13:53:36;;;;;;;;;21.00;21.00;;;;;;;;6485193;46;8941;-58
2023/07/03 13:59:38;;;;;;;;;17.25;17.25;;;;;;;;6486939;31;8957;-58
2023/07/03 14:05:41;;;;;;;;;20.50;20.50;;;;;;;;6485471;47;8861;-56
2023/07/03 14:11:43;;;;;;;;;19.00;17.50;;;;;;;;6486767;39;8993;-59
2023/07/03 14:17:48;;;;;;;;;18.25;16.75;;;;;;;;6485674;46;8941;-55
2023/07/03 14:23:50;;;;;;;;;22.25;20.25;;;;;;;;6483950;31;8958;-59
2023/07/03 14:29:53;;;;;;;;;20.75;20.75;;;;;;;;6484755;31;8933;-57
2023/07/03 14:35:55;;;;;;;;;19.75;18.75;;;;;;;;6484887;39;8931;-57
2023/07/03 14:41:59;;;;;;;;;18.50;18.25;;;;;;;;6485461;39;8988;-57
2023/07/03 14:48:05;;;;;;;;;21.00;20.50;;;;;;;;6485145;39;9010;-56
2023/07/03 14:54:09;;;;;;;;;22.00;21.50;;;;;;;;6485133;39;8927;-59
2023/07/03 15:00:12;;;;;;;;;23.25;22.25;;;;;;;;6486150;31;9018;-56
2023/07/03 15:06:15;;;;;;;;;19.50;18.50;;;;;;;;6484995;39;8912;-58
2023/07/03 15:12:24;;;;;;;;;20.50;20.00;;;;;;;;6485474;39;9960;-58
2023/07/03 15:18:28;;;;;;;;;22.25;22.00;;;;;;;;6486826;39;8909;-57
2023/07/03 15:24:31;;;;;;;;;20.00;18.75;;;;;;;;6486106;31;8907;-57
2023/07/03 15:30:38;;;;;;;;;16.75;15.50;;;;;;;;6487041;39;8953;-58
2023/07/03 15:36:40;;;;;;;;;21.00;19.25;;;;;;;;6486649;31;8962;-57
2023/07/03 15:42:45;;;;;;;;;22.50;20.50;;;;;;;;6306067;39;10000377;-57
2023/07/03 15:48:48;;;;;;;;;18.00;16.75;;;;;;;;6487276;39;8867;-57
2023/07/03 15:54:55;;;;;;;;;24.50;22.25;;;;;;;;6487329;31;8924;-57
2023/07/03 16:01:01;;;;;;;;;18.25;17.75;;;;;;;;6487617;31;8931;-57
2023/07/03 16:07:05;;;;;;;;;21.00;21.00;;;;;;;;6486176;39;8995;-57
2023/07/03 16:13:08;;;;;;;;;20.75;20.50;;;;;;;;6485929;46;9014;-56
2023/07/03 16:19:13;;;;;;;;;26.50;26.50;;;;;;;;6487724;31;8859;-57
2023/07/03 16:25:17;;;;;;;;;19.50;19.50;;;;;;;;6486002;47;8875;-53
2023/07/03 16:31:27;;;;;;;;;21.75;20.50;;;;;;;;6486488;31;8899;-57
2023/07/03 16:37:31;;;;;;;;;20.75;20.75;;;;;;;;6486853;46;8875;-53
2023/07/03 16:43:37;;;;;;;;;20.75;18.50;;;;;;;;6484943;39;8995;-54
2023/07/03 16:49:42;;;;;;;;;19.00;18.75;;;;;;;;6486749;39;9701;-49
2023/07/03 16:55:44;;;;;;;;;22.00;21.00;;;;;;;;6486346;39;8919;-50
2023/07/03 17:01:48;;;;;;;;;24.75;23.75;;;;;;;;6485176;46;8915;-49
2023/07/03 17:07:52;;;;;;;;;20.00;19.50;;;;;;;;6486704;39;9538;-52
2023/07/03 17:13:58;;;;;;;;;28.00;25.25;;;;;;;;6486008;39;8963;-52
2023/07/03 17:20:01;;;;;;;;;21.75;21.75;;;;;;;;6486186;31;8875;-50
2023/07/03 17:26:04;;;;;;;;;26.50;23.75;;;;;;;;6485479;39;9556;-50
2023/07/03 17:32:06;;;;;;;;;26.00;24.25;;;;;;;;6486822;39;8954;-53
2023/07/03 17:38:09;;;;;;;;;26.50;25.50;;;;;;;;6486580;39;8875;-49
2023/07/03 17:44:14;;;;;;;;;23.25;22.25;;;;;;;;6488034;31;8868;-52
2023/07/03 17:50:16;;;;;;;;;24.50;23.00;;;;;;;;6486214;39;9993;-51
2023/07/03 17:56:20;;;;;;;;;22.25;22.25;;;;;;;;6485710;46;8930;-48
2023/07/03 18:02:24;;;;;;;;;26.50;26.50;;;;;;;;6487256;39;8876;-51
2023/07/03 18:08:26;;;;;;;;;21.75;21.75;;;;;;;;6486203;31;8896;-48
2023/07/03 18:14:29;;;;;;;;;21.00;20.25;;;;;;;;6486728;46;8932;-51
2023/07/03 18:20:32;;;;;;;;;23.75;23.25;;;;;;;;6485810;47;8895;-51
2023/07/03 18:26:34;;;;;;;;;21.25;19.75;;;;;;;;6485239;47;8879;-52
2023/07/03 18:32:37;;;;;;;;;22.50;20.50;;;;;;;;6486789;39;8927;-51
2023/07/03 18:38:44;;;;;;;;;26.50;25.25;;;;;;;;6485954;47;9054;-53
2023/07/03 18:44:46;;;;;;;;;25.75;24.50;;;;;;;;6486181;47;8875;-52
2023/07/03 18:50:51;;;;;;;;;24.00;22.25;;;;;;;;6487310;39;8926;-52
2023/07/03 18:56:54;;;;;;;;;25.75;23.75;;;;;;;;6486671;31;8963;-48
2023/07/03 19:02:56;;;;;;;;;27.75;27.00;;;;;;;;6488200;39;8918;-51
2023/07/03 19:08:59;;;;;;;;;31.00;29.75;;;;;;;;6487411;31;8883;-51
2023/07/03 19:15:05;;;;;;;;;29.50;26.50;;;;;;;;6487935;31;8915;-53
2023/07/03 19:21:13;;;;;;;;;27.75;25.25;;;;;;;;6486204;31;8903;-51
2023/07/03 19:27:15;;;;;;;;;26.00;21.75;;;;;;;;6487027;39;8919;-52
2023/07/03 19:33:18;;;;;;;;;26.75;26.00;;;;;;;;6488013;39;8943;-49
2023/07/03 19:39:24;;;;;;;;;23.75;23.00;;;;;;;;6487756;39;8864;-50
2023/07/03 19:45:32;;;;;;;;;26.50;26.50;;;;;;;;6487596;31;8908;-50
2023/07/03 19:51:37;;;;;;;;;29.50;27.50;;;;;;;;6487424;46;8978;-50
2023/07/03 19:57:42;;;;;;;;;25.50;23.25;;;;;;;;6486535;46;8916;-49
2023/07/03 20:03:45;;;;;;;;;26.50;24.50;;;;;;;;6487380;39;8887;-49
2023/07/03 20:09:49;;;;;;;;;27.00;23.00;;;;;;;;6487467;31;8987;-52
2023/07/03 20:15:51;;;;;;;;;25.00;25.00;;;;;;;;6487531;39;9022;-49
2023/07/03 20:21:54;;;;;;;;;25.75;25.75;;;;;;;;6485308;31;8928;-54
2023/07/03 20:27:56;;;;;;;;;26.50;24.75;;;;;;;;6486952;46;8898;-50
2023/07/03 20:34:00;;;;;;;;;24.25;23.50;;;;;;;;6487388;39;9030;-50
2023/07/03 20:40:04;;;;;;;;;28.50;27.50;;;;;;;;6487727;39;8899;-51
2023/07/03 20:46:11;;;;;;;;;29.50;28.25;;;;;;;;6487806;39;8840;-52
2023/07/03 20:52:16;;;;;;;;;24.75;23.75;;;;;;;;6485542;39;9596;-50
2023/07/03 20:58:19;;;;;;;;;30.25;27.75;;;;;;;;6487137;39;8928;-52
2023/07/03 21:04:22;;;;;;;;;30.00;26.25;;;;;;;;6486477;39;8978;-51
2023/07/03 21:10:25;;;;;;;;;27.75;25.25;;;;;;;;6541311;36;8896;-50
2023/07/03 21:16:27;;;;;;;;;23.75;22.75;;;;;;;;6487565;46;8947;-52
2023/07/03 21:22:30;;;;;;;;;24.75;24.25;;;;;;;;6485845;39;8902;-51
2023/07/03 21:28:32;;;;;;;;;31.50;30.00;;;;;;;;6485941;39;8895;-49
2023/07/03 21:34:34;;;;;;;;;27.00;27.00;;;;;;;;6487252;39;8929;-52
2023/07/03 21:40:38;;;;;;;;;25.25;24.50;;;;;;;;6486524;39;8879;-50
2023/07/03 21:46:42;;;;;;;;;24.50;24.50;;;;;;;;6486543;39;8914;-51
2023/07/03 21:52:48;;;;;;;;;28.50;27.75;;;;;;;;6485619;39;8961;-51
2023/07/03 21:58:52;;;;;;;;;29.00;27.00;;;;;;;;6486851;46;8874;-52
2023/07/03 22:04:57;;;;;;;;;30.50;28.75;;;;;;;;6486373;46;8937;-50
2023/07/03 22:10:59;;;;;;;;;30.00;26.00;;;;;;;;6485866;46;8886;-49
2023/07/03 22:17:03;;;;;;;;;28.50;28.25;;;;;;;;6486160;39;8904;-51
2023/07/03 22:23:06;;;;;;;;;28.00;25.00;;;;;;;;6486382;39;8850;-50
2023/07/03 22:29:08;;;;;;;;;23.00;22.75;;;;;;;;6488359;39;8990;-53
2023/07/03 22:35:12;;;;;;;;;27.75;27.75;;;;;;;;6489503;39;8890;-50
2023/07/03 22:41:17;;;;;;;;;33.00;30.00;;;;;;;;6487506;46;8895;-48
2023/07/03 22:47:19;;;;;;;;;25.67;25.67;;;;;;;;6489255;39;8942;-51
2023/07/03 22:53:22;;;;;;;;;30.00;29.75;;;;;;;;6487871;31;8986;-47
2023/07/03 22:59:26;;;;;;;;;30.00;28.67;;;;;;;;6489536;39;9605;-48
2023/07/03 23:05:28;;;;;;;;;28.00;27.50;;;;;;;;6487027;39;8907;-52
2023/07/03 23:11:31;;;;;;;;;31.67;29.00;;;;;;;;6487009;46;8886;-51
2023/07/03 23:17:33;;;;;;;;;26.25;25.75;;;;;;;;6488406;31;9104;-51
2023/07/03 23:23:37;;;;;;;;;32.33;30.67;;;;;;;;6485610;46;9016;-51
2023/07/03 23:29:41;;;;;;;;;9.00;7.00;;;;;;;;6488475;39;8903;-51
2023/07/03 23:35:44;;;;;;;;;29.00;28.67;;;;;;;;6306728;39;10001055;-52
2023/07/03 23:41:47;;;;;;;;;28.25;26.75;;;;;;;;6488049;39;8852;-51
2023/07/03 23:47:51;;;;;;;;;29.67;27.00;;;;;;;;6488208;39;8956;-52
2023/07/03 23:53:55;;;;;;;;;33.33;31.33;;;;;;;;6486936;31;9594;-50
2023/07/03 23:59:57;;;;;;;;;35.33;30.33;;;;;;;;6487549;39;8898;-50
